Time;durP1;ratioP1;P1;durP2;ratioP2;P2;SDS_P1;SDS_P2;PMS_P1;PMS_P2;Temp;Humidity;BMP_temperature;BMP_pressure;BME280_temperature;BME280_humidity;BME280_pressure;Samples;Min_cycle;Max_cycle;Signal;HPM_P1;HPM_P2
2022/07/12 00:01:18;;;;;;;9.43;7.70;;;;;;;;;;5044614;28;20067;-66
2022/07/12 00:03:43;;;;;;;9.32;8.25;;;;;;;;;;5045943;28;20044;-66
2022/07/12 00:06:09;;;;;;;8.00;7.30;;;;;;;;;;5044274;28;20033;-65
2022/07/12 00:08:35;;;;;;;8.30;7.43;;;;;;;;;;5045388;28;20052;-66
2022/07/12 00:11:00;;;;;;;8.63;7.80;;;;;;;;;;5042388;28;20048;-65
2022/07/12 00:13:26;;;;;;;8.48;7.60;;;;;;;;;;5046380;28;20060;-65
2022/07/12 00:15:52;;;;;;;8.77;7.95;;;;;;;;;;5042596;28;20039;-67
2022/07/12 00:18:17;;;;;;;8.55;7.85;;;;;;;;;;5046044;28;20116;-65
2022/07/12 00:20:43;;;;;;;8.63;7.80;;;;;;;;;;5038983;28;20105;-67
2022/07/12 00:23:08;;;;;;;9.35;7.97;;;;;;;;;;5031481;28;20072;-67
2022/07/12 00:25:34;;;;;;;9.77;7.72;;;;;;;;;;5038891;28;20029;-65
2022/07/12 00:27:59;;;;;;;8.82;8.02;;;;;;;;;;5046071;28;20070;-65
2022/07/12 00:30:25;;;;;;;8.73;7.90;;;;;;;;;;5042192;28;20040;-66
2022/07/12 00:32:51;;;;;;;8.90;8.07;;;;;;;;;;5043717;28;20064;-67
2022/07/12 00:35:16;;;;;;;8.63;7.85;;;;;;;;;;5045790;28;20032;-66
2022/07/12 00:37:42;;;;;;;13.32;8.07;;;;;;;;;;5045685;28;20528;-66
2022/07/12 00:40:09;;;;;;;8.57;7.88;;;;;;;;;;5043546;28;20033;-67
2022/07/12 00:42:36;;;;;;;8.90;8.10;;;;;;;;;;5041463;28;20056;-68
2022/07/12 00:45:05;;;;;;;8.43;7.72;;;;;;;;;;5039061;28;20032;-66
2022/07/12 00:47:40;;;;;;;11.88;8.07;;;;;;;;;;5024554;28;20404;-66
2022/07/12 00:50:21;;;;;;;8.30;7.50;;;;;;;;;;5041694;28;20037;-66
2022/07/12 00:52:48;;;;;;;8.50;7.80;;;;;;;;;;5039263;28;20033;-66
2022/07/12 00:55:14;;;;;;;8.70;7.90;;;;;;;;;;5044623;28;20044;-67
2022/07/12 00:57:43;;;;;;;8.52;7.78;;;;;;;;;;5038900;28;20079;-66
2022/07/12 01:00:17;;;;;;;9.25;7.97;;;;;;;;;;5044211;28;20037;-67
2022/07/12 01:02:45;;;;;;;8.77;7.80;;;;;;;;;;5043318;28;20047;-67
2022/07/12 01:05:11;;;;;;;8.27;7.57;;;;;;;;;;5043999;28;20047;-67
2022/07/12 01:07:37;;;;;;;8.30;7.50;;;;;;;;;;5043931;28;20033;-67
2022/07/12 01:10:04;;;;;;;8.43;7.63;;;;;;;;;;5045487;28;20045;-66
2022/07/12 01:12:30;;;;;;;8.10;7.30;;;;;;;;;;5046331;28;20111;-66
2022/07/12 01:14:56;;;;;;;8.32;7.63;;;;;;;;;;5045424;28;20045;-66
2022/07/12 01:17:24;;;;;;;8.55;7.63;;;;;;;;;;5039293;28;20101;-68
2022/07/12 01:19:51;;;;;;;8.82;8.02;;;;;;;;;;5043330;28;20063;-67
2022/07/12 01:22:18;;;;;;;8.88;7.80;;;;;;;;;;5044191;28;20510;-66
2022/07/12 01:24:45;;;;;;;8.45;7.75;;;;;;;;;;5041268;28;20127;-66
2022/07/12 01:27:13;;;;;;;8.68;7.88;;;;;;;;;;5044205;28;20036;-67
2022/07/12 01:29:39;;;;;;;15.27;8.27;;;;;;;;;;5043126;28;20086;-67
2022/07/12 01:32:29;;;;;;;8.70;7.90;;;;;;;;;;5045231;28;20301;-67
2022/07/12 01:34:55;;;;;;;;;;;;;;;;;;5041710;28;20051;-66
2022/07/12 01:37:23;;;;;;;8.93;8.10;;;;;;;;;;5045808;28;20042;-66
2022/07/12 01:39:52;;;;;;;10.23;8.50;;;;;;;;;;5042455;28;20377;-66
2022/07/12 01:42:21;;;;;;;8.32;7.72;;;;;;;;;;5046060;28;20036;-66
2022/07/12 01:44:48;;;;;;;8.88;8.00;;;;;;;;;;5040874;28;20033;-67
2022/07/12 01:47:13;;;;;;;8.80;8.00;;;;;;;;;;5044268;28;20401;-67
2022/07/12 01:49:39;;;;;;;8.57;7.63;;;;;;;;;;5040041;28;20115;-67
2022/07/12 01:52:05;;;;;;;13.73;8.25;;;;;;;;;;5041074;28;20102;-67
2022/07/12 01:54:32;;;;;;;8.85;8.05;;;;;;;;;;5044195;28;20519;-67
2022/07/12 01:56:58;;;;;;;10.45;8.00;;;;;;;;;;5046105;28;20392;-67
2022/07/12 01:59:23;;;;;;;8.57;7.78;;;;;;;;;;5047709;28;20476;-67
2022/07/12 02:01:49;;;;;;;8.05;7.35;;;;;;;;;;5041208;28;20136;-66
2022/07/12 02:04:18;;;;;;;8.65;7.85;;;;;;;;;;5047769;28;20040;-67
2022/07/12 02:06:45;;;;;;;8.45;7.65;;;;;;;;;;5035651;28;20042;-66
2022/07/12 02:09:14;;;;;;;8.80;8.02;;;;;;;;;;5043892;28;20041;-66
2022/07/12 02:11:40;;;;;;;9.18;8.38;;;;;;;;;;5048275;28;20036;-66
2022/07/12 02:14:06;;;;;;;9.50;8.60;;;;;;;;;;5047799;28;20249;-66
2022/07/12 02:16:32;;;;;;;8.90;8.15;;;;;;;;;;5043671;28;20037;-66
2022/07/12 02:18:58;;;;;;;9.60;8.68;;;;;;;;;;5044949;28;20041;-66
2022/07/12 02:21:24;;;;;;;9.20;8.38;;;;;;;;;;5044461;28;20025;-66
2022/07/12 02:23:49;;;;;;;8.60;7.82;;;;;;;;;;5046510;28;20111;-68
2022/07/12 02:26:15;;;;;;;8.73;7.80;;;;;;;;;;5047052;28;20033;-66
2022/07/12 02:28:41;;;;;;;9.60;7.78;;;;;;;;;;5046988;28;20378;-67
2022/07/12 02:31:07;;;;;;;9.15;8.35;;;;;;;;;;5044602;28;20087;-66
2022/07/12 02:33:33;;;;;;;8.95;8.05;;;;;;;;;;5044726;28;20528;-67
2022/07/12 02:35:58;;;;;;;9.05;8.15;;;;;;;;;;5044077;28;20112;-67
2022/07/12 02:38:24;;;;;;;8.73;7.82;;;;;;;;;;5045459;28;20033;-67
2022/07/12 02:40:53;;;;;;;10.23;8.40;;;;;;;;;;5044835;28;20484;-67
2022/07/12 02:43:26;;;;;;;9.90;8.90;;;;;;;;;;5040722;28;20039;-66
2022/07/12 02:45:53;;;;;;;10.60;8.60;;;;;;;;;;5042996;28;20041;-66
2022/07/12 02:48:19;;;;;;;9.07;8.20;;;;;;;;;;5034892;28;20071;-66
2022/07/12 02:50:45;;;;;;;9.38;8.52;;;;;;;;;;5045024;28;20037;-67
2022/07/12 02:53:11;;;;;;;11.02;8.63;;;;;;;;;;5040478;28;20029;-66
2022/07/12 02:55:38;;;;;;;9.63;8.65;;;;;;;;;;5047023;28;20040;-66
2022/07/12 02:58:07;;;;;;;8.55;7.85;;;;;;;;;;5047632;28;20033;-66
2022/07/12 03:00:34;;;;;;;9.32;8.45;;;;;;;;;;5045017;28;20037;-66
2022/07/12 03:03:00;;;;;;;9.35;8.05;;;;;;;;;;5041009;28;20037;-66
2022/07/12 03:05:26;;;;;;;8.77;7.97;;;;;;;;;;5046367;28;20037;-67
2022/07/12 03:07:52;;;;;;;8.85;7.97;;;;;;;;;;5042766;28;20697;-66
2022/07/12 03:10:17;;;;;;;9.18;8.23;;;;;;;;;;5027868;28;20029;-66
2022/07/12 03:12:43;;;;;;;10.00;8.95;;;;;;;;;;5041682;28;20044;-66
2022/07/12 03:15:09;;;;;;;9.70;8.80;;;;;;;;;;5041617;28;20025;-66
2022/07/12 03:17:35;;;;;;;10.10;8.20;;;;;;;;;;5042088;28;20094;-64
2022/07/12 03:20:04;;;;;;;9.35;8.45;;;;;;;;;;5044465;28;20033;-64
2022/07/12 03:22:29;;;;;;;8.52;7.72;;;;;;;;;;5029630;28;20040;-66
2022/07/12 03:24:55;;;;;;;9.57;8.63;;;;;;;;;;5041304;28;20056;-65
2022/07/12 03:27:21;;;;;;;9.77;8.23;;;;;;;;;;5047190;28;20389;-65
2022/07/12 03:29:47;;;;;;;9.73;8.73;;;;;;;;;;5038236;28;20033;-65
2022/07/12 03:32:12;;;;;;;9.95;9.05;;;;;;;;;;5044944;28;20024;-65
2022/07/12 03:34:38;;;;;;;10.45;9.45;;;;;;;;;;5042553;28;20056;-65
2022/07/12 03:37:04;;;;;;;10.82;9.07;;;;;;;;;;5046458;28;20055;-64
2022/07/12 03:39:30;;;;;;;10.27;9.27;;;;;;;;;;5044286;28;20047;-65
2022/07/12 03:41:56;;;;;;;12.80;10.00;;;;;;;;;;5043644;28;20148;-65
2022/07/12 03:44:21;;;;;;;11.30;9.23;;;;;;;;;;5043169;28;20064;-65
2022/07/12 03:46:47;;;;;;;11.40;10.15;;;;;;;;;;5046721;28;20041;-65
2022/07/12 03:49:13;;;;;;;10.10;9.10;;;;;;;;;;5043923;28;20484;-65
2022/07/12 03:51:42;;;;;;;11.75;9.30;;;;;;;;;;5040384;28;20040;-65
2022/07/12 03:54:08;;;;;;;10.43;9.43;;;;;;;;;;5043895;28;20505;-65
2022/07/12 03:59:19;;;;;;;11.77;9.27;;;;;;;;;;5044267;28;20040;-65
2022/07/12 04:01:44;;;;;;;10.40;9.38;;;;;;;;;;5043505;28;20095;-66
2022/07/12 04:04:10;;;;;;;9.60;8.70;;;;;;;;;;5042944;28;20508;-65
2022/07/12 04:06:36;;;;;;;11.32;10.23;;;;;;;;;;5046012;28;20039;-65
2022/07/12 04:09:03;;;;;;;11.27;10.07;;;;;;;;;;5043549;28;20033;-66
2022/07/12 04:11:29;;;;;;;14.30;10.30;;;;;;;;;;5040818;28;20171;-65
2022/07/12 04:13:54;;;;;;;11.35;9.35;;;;;;;;;;5044336;28;20127;-65
2022/07/12 04:16:20;;;;;;;11.00;9.55;;;;;;;;;;5040565;28;20049;-64
2022/07/12 04:18:46;;;;;;;11.90;10.70;;;;;;;;;;5043438;28;20037;-65
2022/07/12 04:21:12;;;;;;;10.35;9.35;;;;;;;;;;5042850;28;20094;-64
2022/07/12 04:23:38;;;;;;;11.98;9.48;;;;;;;;;;5042507;28;20099;-66
2022/07/12 04:26:04;;;;;;;11.48;9.20;;;;;;;;;;5041958;28;20033;-65
2022/07/12 04:28:29;;;;;;;9.25;8.43;;;;;;;;;;5044369;28;20029;-65
2022/07/12 04:30:55;;;;;;;10.02;9.05;;;;;;;;;;5042057;28;20056;-65
2022/07/12 04:33:21;;;;;;;13.32;9.85;;;;;;;;;;5041531;28;20448;-65
2022/07/12 04:35:46;;;;;;;9.77;8.88;;;;;;;;;;5043166;28;20098;-65
2022/07/12 04:38:12;;;;;;;12.00;9.10;;;;;;;;;;5043957;28;20037;-64
2022/07/12 04:40:37;;;;;;;11.80;9.38;;;;;;;;;;5046929;28;20061;-64
2022/07/12 04:43:03;;;;;;;10.30;9.20;;;;;;;;;;5041096;28;20033;-64
2022/07/12 04:45:28;;;;;;;10.48;9.57;;;;;;;;;;5045628;28;20051;-65
2022/07/12 04:47:54;;;;;;;11.10;9.93;;;;;;;;;;5036402;28;20091;-64
2022/07/12 04:50:19;;;;;;;11.38;9.57;;;;;;;;;;5043358;28;20032;-64
2022/07/12 04:52:45;;;;;;;11.05;9.75;;;;;;;;;;5042186;28;20047;-65
2022/07/12 04:55:11;;;;;;;10.45;9.45;;;;;;;;;;5043626;28;20029;-64
2022/07/12 04:57:37;;;;;;;11.68;9.82;;;;;;;;;;5041177;28;20072;-65
2022/07/12 05:00:07;;;;;;;11.00;9.95;;;;;;;;;;5043834;28;20874;-65
2022/07/12 05:02:33;;;;;;;11.15;9.73;;;;;;;;;;5037796;28;20065;-65
2022/07/12 05:04:59;;;;;;;10.95;9.95;;;;;;;;;;5042081;28;20037;-64
2022/07/12 05:07:24;;;;;;;11.52;9.88;;;;;;;;;;5045517;28;20036;-65
2022/07/12 05:09:51;;;;;;;9.98;9.05;;;;;;;;;;5046147;28;20381;-64
2022/07/12 05:12:17;;;;;;;9.85;8.85;;;;;;;;;;5043434;28;20040;-65
2022/07/12 05:14:43;;;;;;;9.30;8.50;;;;;;;;;;5043204;28;20112;-65
2022/07/12 05:17:09;;;;;;;8.90;8.10;;;;;;;;;;5039742;28;20041;-65
2022/07/12 05:19:35;;;;;;;8.88;8.05;;;;;;;;;;5039863;28;20029;-65
2022/07/12 05:22:02;;;;;;;9.55;8.60;;;;;;;;;;5043470;28;20040;-64
2022/07/12 05:24:28;;;;;;;8.30;7.65;;;;;;;;;;5042378;28;20484;-65
2022/07/12 05:26:54;;;;;;;8.48;7.78;;;;;;;;;;5042853;28;21666;-65
2022/07/12 05:29:20;;;;;;;9.07;8.30;;;;;;;;;;5043358;28;20514;-65
2022/07/12 05:31:45;;;;;;;8.50;7.68;;;;;;;;;;5047646;28;20029;-65
2022/07/12 05:34:11;;;;;;;10.07;7.85;;;;;;;;;;5047333;28;20072;-65
2022/07/12 05:36:37;;;;;;;8.02;7.32;;;;;;;;;;5046847;28;20432;-64
2022/07/12 05:39:03;;;;;;;7.88;7.18;;;;;;;;;;5043891;28;20029;-64
2022/07/12 05:41:28;;;;;;;8.68;7.88;;;;;;;;;;5049174;28;20048;-65
2022/07/12 05:43:54;;;;;;;8.13;7.53;;;;;;;;;;5044539;28;20127;-64
2022/07/12 05:46:19;;;;;;;8.10;7.40;;;;;;;;;;5046990;28;20115;-64
2022/07/12 05:48:45;;;;;;;8.25;7.53;;;;;;;;;;5044609;28;20029;-66
2022/07/12 05:53:55;;;;;;;11.10;7.22;;;;;;;;;;5047400;28;20029;-66
2022/07/12 05:56:20;;;;;;;7.55;6.95;;;;;;;;;;5047057;28;20047;-66
2022/07/12 05:58:46;;;;;;;7.90;7.30;;;;;;;;;;5045631;28;20033;-66
2022/07/12 06:01:11;;;;;;;8.07;7.22;;;;;;;;;;5045566;28;20114;-66
2022/07/12 06:03:37;;;;;;;8.77;7.88;;;;;;;;;;5046424;28;20028;-67
2022/07/12 06:06:03;;;;;;;17.88;8.18;;;;;;;;;;5045269;28;20421;-66
2022/07/12 06:08:28;;;;;;;8.88;7.13;;;;;;;;;;5049292;28;20574;-66
2022/07/12 06:10:54;;;;;;;11.07;7.88;;;;;;;;;;5049272;28;20036;-66
2022/07/12 06:13:20;;;;;;;8.50;7.72;;;;;;;;;;5045922;28;20094;-66
2022/07/12 06:15:45;;;;;;;9.25;7.95;;;;;;;;;;5046317;28;20033;-66
2022/07/12 06:18:11;;;;;;;8.38;7.57;;;;;;;;;;5047450;28;20119;-66
2022/07/12 06:20:36;;;;;;;8.43;7.53;;;;;;;;;;5045890;28;20079;-66
2022/07/12 06:23:02;;;;;;;8.32;7.50;;;;;;;;;;5046234;28;20143;-66
2022/07/12 06:25:28;;;;;;;7.60;6.90;;;;;;;;;;5045189;28;20032;-66
2022/07/12 06:27:53;;;;;;;9.40;7.25;;;;;;;;;;5048659;28;20037;-66
2022/07/12 06:30:20;;;;;;;8.00;7.25;;;;;;;;;;5045945;28;20041;-66
2022/07/12 06:32:47;;;;;;;10.52;7.35;;;;;;;;;;5044425;28;20581;-66
2022/07/12 06:35:13;;;;;;;9.05;6.65;;;;;;;;;;5043724;28;20029;-66
2022/07/12 06:37:39;;;;;;;7.20;6.60;;;;;;;;;;5046636;28;20055;-66
2022/07/12 06:40:06;;;;;;;11.20;6.43;;;;;;;;;;5041961;28;20037;-66
2022/07/12 06:42:32;;;;;;;7.68;6.90;;;;;;;;;;5043112;28;20037;-66
2022/07/12 06:44:58;;;;;;;8.13;6.45;;;;;;;;;;5046954;28;20087;-66
2022/07/12 06:47:24;;;;;;;8.07;6.50;;;;;;;;;;5043818;28;20037;-65
2022/07/12 06:49:49;;;;;;;7.20;6.50;;;;;;;;;;5041060;28;20090;-66
2022/07/12 06:52:15;;;;;;;7.07;6.18;;;;;;;;;;5045681;28;20116;-65
2022/07/12 06:54:41;;;;;;;6.57;6.07;;;;;;;;;;5047243;28;20029;-65
2022/07/12 06:57:07;;;;;;;6.32;5.85;;;;;;;;;;5046012;28;20052;-65
2022/07/12 06:59:32;;;;;;;6.88;6.28;;;;;;;;;;5045919;28;20025;-65
2022/07/12 07:01:58;;;;;;;5.72;5.32;;;;;;;;;;5040412;28;20037;-65
2022/07/12 07:04:24;;;;;;;5.35;4.95;;;;;;;;;;5046354;28;20057;-65
2022/07/12 07:06:51;;;;;;;5.03;4.82;;;;;;;;;;5047537;28;20447;-65
2022/07/12 07:09:17;;;;;;;5.07;4.78;;;;;;;;;;5043895;28;20037;-65
2022/07/12 07:11:42;;;;;;;4.82;4.43;;;;;;;;;;5045231;28;20033;-66
2022/07/12 07:14:08;;;;;;;4.95;4.50;;;;;;;;;;5045934;28;20045;-66
2022/07/12 07:16:34;;;;;;;4.65;4.32;;;;;;;;;;5042284;28;20048;-66
2022/07/12 07:18:59;;;;;;;5.00;4.60;;;;;;;;;;5045114;28;20037;-66
2022/07/12 07:21:25;;;;;;;4.60;4.40;;;;;;;;;;5043716;28;20135;-66
2022/07/12 07:23:52;;;;;;;5.15;4.85;;;;;;;;;;5044356;28;20033;-66
2022/07/12 07:26:17;;;;;;;4.55;4.35;;;;;;;;;;5045297;28;20128;-66
2022/07/12 07:31:28;;;;;;;4.70;4.28;;;;;;;;;;5045849;28;20024;-66
2022/07/12 07:33:53;;;;;;;4.70;4.40;;;;;;;;;;5042404;28;20082;-66
2022/07/12 07:36:19;;;;;;;4.47;4.18;;;;;;;;;;5043623;28;20033;-66
2022/07/12 07:38:44;;;;;;;4.35;4.15;;;;;;;;;;5044944;28;20093;-66
2022/07/12 07:41:10;;;;;;;4.90;4.60;;;;;;;;;;5045699;28;20472;-66
2022/07/12 07:43:36;;;;;;;5.20;4.90;;;;;;;;;;5041044;28;20123;-66
2022/07/12 07:46:01;;;;;;;4.63;4.32;;;;;;;;;;5043150;28;20044;-66
2022/07/12 07:48:28;;;;;;;4.70;4.40;;;;;;;;;;5041976;28;20040;-66
2022/07/12 07:50:54;;;;;;;5.18;4.75;;;;;;;;;;5044625;28;20072;-66
2022/07/12 07:53:19;;;;;;;4.88;4.68;;;;;;;;;;5043277;28;20262;-67
2022/07/12 07:55:45;;;;;;;4.70;4.50;;;;;;;;;;5043015;28;20071;-66
2022/07/12 07:58:11;;;;;;;5.00;4.60;;;;;;;;;;5042370;28;20041;-66
2022/07/12 08:00:36;;;;;;;5.13;4.70;;;;;;;;;;5045956;28;20040;-67
2022/07/12 08:03:02;;;;;;;5.30;4.90;;;;;;;;;;5040615;28;20499;-66
2022/07/12 08:05:28;;;;;;;4.97;4.68;;;;;;;;;;5046216;28;20539;-66
2022/07/12 08:07:54;;;;;;;5.22;4.82;;;;;;;;;;5043813;28;20175;-66
2022/07/12 08:10:19;;;;;;;4.60;4.40;;;;;;;;;;5043217;28;20395;-66
2022/07/12 08:12:45;;;;;;;5.15;4.85;;;;;;;;;;5044110;28;20368;-66
2022/07/12 08:15:10;;;;;;;4.30;4.10;;;;;;;;;;5042042;28;20040;-67
2022/07/12 08:17:37;;;;;;;4.50;4.30;;;;;;;;;;5046731;28;20037;-66
2022/07/12 08:20:04;;;;;;;4.22;4.03;;;;;;;;;;5038908;28;20037;-70
2022/07/12 08:22:30;;;;;;;4.43;4.22;;;;;;;;;;5043968;28;20029;-66
2022/07/12 08:24:55;;;;;;;4.30;4.10;;;;;;;;;;5044055;28;20035;-67
2022/07/12 08:27:21;;;;;;;4.57;4.35;;;;;;;;;;5045637;28;20076;-67
2022/07/12 08:29:46;;;;;;;4.03;3.83;;;;;;;;;;5041967;28;20045;-66
2022/07/12 08:32:12;;;;;;;4.50;4.30;;;;;;;;;;5041160;28;20033;-67
2022/07/12 08:34:38;;;;;;;4.50;4.30;;;;;;;;;;5039331;28;20048;-67
2022/07/12 08:37:04;;;;;;;4.30;4.10;;;;;;;;;;5043620;28;20041;-67
2022/07/12 08:39:29;;;;;;;4.30;4.10;;;;;;;;;;5040366;28;20108;-67
2022/07/12 08:41:55;;;;;;;3.90;3.70;;;;;;;;;;5043423;28;20543;-67
2022/07/12 08:44:20;;;;;;;4.22;4.03;;;;;;;;;;5043693;28;20033;-66
2022/07/12 08:46:47;;;;;;;4.20;3.95;;;;;;;;;;5042469;28;20032;-67
2022/07/12 08:49:12;;;;;;;3.92;3.72;;;;;;;;;;5040427;28;20075;-66
2022/07/12 08:51:38;;;;;;;3.90;3.72;;;;;;;;;;5042421;28;20037;-67
2022/07/12 08:54:12;;;;;;;4.18;3.97;;;;;;;;;;5044465;28;20083;-67
2022/07/12 08:56:39;;;;;;;4.00;3.80;;;;;;;;;;5044195;28;20036;-67
2022/07/12 08:59:16;;;;;;;4.00;3.80;;;;;;;;;;5043102;28;20039;-67
2022/07/12 09:01:49;;;;;;;3.90;3.70;;;;;;;;;;5041179;28;20262;-67
2022/07/12 09:04:20;;;;;;;4.78;4.40;;;;;;;;;;5044048;28;20033;-66
2022/07/12 09:06:46;;;;;;;3.95;3.75;;;;;;;;;;5044957;28;20052;-67
2022/07/12 09:09:28;;;;;;;4.60;4.40;;;;;;;;;;5048569;28;20060;-66
2022/07/12 09:11:54;;;;;;;4.07;3.80;;;;;;;;;;5045455;28;20037;-66
2022/07/12 09:14:20;;;;;;;4.60;4.30;;;;;;;;;;5047876;28;20090;-66
2022/07/12 09:17:09;;;;;;;4.55;4.35;;;;;;;;;;5046744;28;20258;-67
2022/07/12 09:19:36;;;;;;;4.35;4.05;;;;;;;;;;5045979;28;20032;-67
2022/07/12 09:22:03;;;;;;;4.40;4.10;;;;;;;;;;5048622;28;20048;-67
2022/07/12 09:24:29;;;;;;;4.28;4.07;;;;;;;;;;5046594;28;20033;-66
2022/07/12 09:27:01;;;;;;;4.78;4.47;;;;;;;;;;5048327;28;20443;-67
2022/07/12 09:29:26;;;;;;;4.53;4.13;;;;;;;;;;5044498;28;20035;-68
2022/07/12 09:37:21;;;;;;;4.00;3.80;;;;;;;;;;5047946;28;20032;-67
2022/07/12 09:39:48;;;;;;;3.75;3.58;;;;;;;;;;5049238;28;20079;-66
2022/07/12 09:42:13;;;;;;;4.03;3.70;;;;;;;;;;5046330;28;20465;-66
2022/07/12 09:44:40;;;;;;;4.90;4.50;;;;;;;;;;5044530;28;20025;-67
2022/07/12 09:47:12;;;;;;;5.65;4.10;;;;;;;;;;5044851;28;20116;-67
2022/07/12 09:49:38;;;;;;;4.00;3.80;;;;;;;;;;5048453;28;20637;-66
2022/07/12 09:52:06;;;;;;;4.20;4.00;;;;;;;;;;5044525;28;20078;-66
2022/07/12 09:54:38;;;;;;;4.30;4.00;;;;;;;;;;5048345;28;20404;-66
2022/07/12 09:57:09;;;;;;;3.90;3.70;;;;;;;;;;5046126;28;20033;-66
2022/07/12 09:59:36;;;;;;;3.90;3.70;;;;;;;;;;5047337;28;20036;-66
2022/07/12 10:02:05;;;;;;;3.90;3.63;;;;;;;;;;5042675;28;20204;-66
2022/07/12 10:04:32;;;;;;;4.00;3.80;;;;;;;;;;5047533;28;20033;-65
2022/07/12 10:06:58;;;;;;;3.83;3.63;;;;;;;;;;5045149;28;20044;-66
2022/07/12 10:09:25;;;;;;;4.43;4.13;;;;;;;;;;5047693;28;20238;-67
2022/07/12 10:11:52;;;;;;;4.40;4.10;;;;;;;;;;5041251;28;20041;-66
2022/07/12 10:14:20;;;;;;;3.88;3.67;;;;;;;;;;5046154;28;20029;-66
2022/07/12 10:16:49;;;;;;;4.50;4.30;;;;;;;;;;5045355;28;20044;-66
2022/07/12 10:19:29;;;;;;;4.50;4.30;;;;;;;;;;5044988;28;20037;-65
2022/07/12 10:21:58;;;;;;;3.75;3.45;;;;;;;;;;5044083;28;20502;-66
2022/07/12 10:24:32;;;;;;;4.28;3.97;;;;;;;;;;5045589;28;20498;-66
2022/07/12 10:27:13;;;;;;;3.80;3.60;;;;;;;;;;5049355;28;20049;-66
2022/07/12 10:29:40;;;;;;;3.15;2.95;;;;;;;;;;5045305;28;20036;-66
2022/07/12 10:32:31;;;;;;;4.10;3.63;;;;;;;;;;5047094;28;20065;-67
2022/07/12 10:35:01;;;;;;;3.90;3.70;;;;;;;;;;5041260;28;20075;-67
2022/07/12 10:37:29;;;;;;;3.85;3.65;;;;;;;;;;5046375;28;20131;-66
2022/07/12 10:40:16;;;;;;;3.60;3.40;;;;;;;;;;5046377;28;20048;-66
2022/07/12 10:43:00;;;;;;;4.07;3.88;;;;;;;;;;5041819;28;20041;-67
2022/07/12 10:45:29;;;;;;;4.28;4.07;;;;;;;;;;5046833;28;20450;-66
2022/07/12 10:48:01;;;;;;;4.35;4.15;;;;;;;;;;5045379;28;20036;-67
2022/07/12 10:50:59;;;;;;;4.45;4.00;;;;;;;;;;5046449;28;20032;-67
2022/07/12 10:53:29;;;;;;;;;;;;;;;;;;5002173;28;20144;-67
2022/07/12 10:56:06;;;;;;;4.07;3.88;;;;;;;;;;5003286;28;19914;-67
2022/07/12 10:58:34;;;;;;;4.15;3.85;;;;;;;;;;4999787;28;20038;-68
2022/07/12 11:01:02;;;;;;;4.18;3.97;;;;;;;;;;5000511;28;20125;-67
2022/07/12 11:03:32;;;;;;;;;;;;;;;;;;5005516;28;20093;-66
2022/07/12 11:06:05;;;;;;;4.47;4.20;;;;;;;;;;4996895;28;20405;-66
2022/07/12 11:08:31;;;;;;;3.97;3.78;;;;;;;;;;5002727;28;20505;-66
2022/07/12 11:10:57;;;;;;;4.45;4.07;;;;;;;;;;5000998;28;20052;-66
2022/07/12 11:13:25;;;;;;;4.60;4.40;;;;;;;;;;5000297;28;20332;-66
2022/07/12 11:16:00;;;;;;;4.30;4.10;;;;;;;;;;5000532;28;20591;-67
2022/07/12 11:18:30;;;;;;;4.65;4.30;;;;;;;;;;5003768;28;20676;-67
2022/07/12 11:20:58;;;;;;;4.55;4.35;;;;;;;;;;4999365;28;20080;-67
2022/07/12 11:23:28;;;;;;;3.88;3.67;;;;;;;;;;5001890;28;20580;-67
2022/07/12 11:25:59;;;;;;;4.00;3.80;;;;;;;;;;5004288;28;20569;-67
2022/07/12 11:28:27;;;;;;;5.10;4.10;;;;;;;;;;5001656;28;20115;-67
2022/07/12 11:31:00;;;;;;;7.60;4.55;;;;;;;;;;5032326;28;20458;-66
2022/07/12 11:33:32;;;;;;;4.57;4.15;;;;;;;;;;5040409;28;20021;-66
2022/07/12 11:35:58;;;;;;;4.43;4.22;;;;;;;;;;5044290;28;20124;-66
2022/07/12 11:38:25;;;;;;;4.50;4.30;;;;;;;;;;5045391;28;20037;-66
2022/07/12 11:40:59;;;;;;;4.90;4.70;;;;;;;;;;5039539;28;20029;-66
2022/07/12 11:43:26;;;;;;;4.65;4.38;;;;;;;;;;5040009;28;20028;-66
2022/07/12 11:45:53;;;;;;;4.93;4.63;;;;;;;;;;5043829;28;20488;-66
2022/07/12 11:48:19;;;;;;;4.28;4.07;;;;;;;;;;5041699;28;20041;-67
2022/07/12 11:50:45;;;;;;;4.40;4.20;;;;;;;;;;5035082;28;20036;-66
2022/07/12 11:53:16;;;;;;;4.35;4.15;;;;;;;;;;5040165;28;20484;-66
2022/07/12 11:55:45;;;;;;;4.53;4.22;;;;;;;;;;5043088;28;20294;-66
2022/07/12 11:58:11;;;;;;;4.35;4.15;;;;;;;;;;5038164;28;20607;-66
2022/07/12 12:00:36;;;;;;;4.45;4.25;;;;;;;;;;5042511;28;20056;-66
2022/07/12 12:03:02;;;;;;;4.47;4.28;;;;;;;;;;5042794;28;20120;-66
2022/07/12 12:05:28;;;;;;;4.40;4.20;;;;;;;;;;5037805;28;20040;-66
2022/07/12 12:07:53;;;;;;;4.60;4.40;;;;;;;;;;5036868;28;20044;-66
2022/07/12 12:10:19;;;;;;;4.55;4.15;;;;;;;;;;5043151;28;20028;-66
2022/07/12 12:13:03;;;;;;;4.50;4.30;;;;;;;;;;5044863;28;20381;-66
2022/07/12 12:15:33;;;;;;;4.38;4.18;;;;;;;;;;5041470;28;20163;-66
2022/07/12 12:18:04;;;;;;;4.78;4.50;;;;;;;;;;5044096;28;20044;-66
2022/07/12 12:20:31;;;;;;;4.40;4.20;;;;;;;;;;5038517;28;20504;-65
2022/07/12 12:22:58;;;;;;;4.72;4.50;;;;;;;;;;5043905;28;20052;-65
2022/07/12 12:25:25;;;;;;;4.25;4.05;;;;;;;;;;5044030;28;20033;-67
2022/07/12 12:28:00;;;;;;;4.43;4.22;;;;;;;;;;5042327;28;20032;-66
2022/07/12 12:30:27;;;;;;;4.53;4.32;;;;;;;;;;5043758;28;20043;-66
2022/07/12 12:32:57;;;;;;;4.30;4.10;;;;;;;;;;5040688;28;20041;-65
2022/07/12 12:35:31;;;;;;;4.45;4.25;;;;;;;;;;5044153;28;20043;-68
2022/07/12 12:37:59;;;;;;;4.50;4.30;;;;;;;;;;5045470;28;20275;-65
2022/07/12 12:40:27;;;;;;;4.10;3.80;;;;;;;;;;5040234;28;20305;-67
2022/07/12 12:43:05;;;;;;;4.25;4.05;;;;;;;;;;5037553;28;20068;-67
2022/07/12 12:45:30;;;;;;;6.55;4.15;;;;;;;;;;5043988;28;20496;-67
2022/07/12 12:48:00;;;;;;;4.40;4.03;;;;;;;;;;5039182;28;20037;-67
2022/07/12 12:50:39;;;;;;;4.15;3.95;;;;;;;;;;5043569;28;20041;-67
2022/07/12 12:53:14;;;;;;;4.90;4.53;;;;;;;;;;5042233;28;20069;-67
2022/07/12 12:55:41;;;;;;;4.28;4.07;;;;;;;;;;5042476;28;20309;-67
2022/07/12 12:58:06;;;;;;;4.13;3.83;;;;;;;;;;5040256;28;20043;-67
2022/07/12 13:00:34;;;;;;;4.55;4.22;;;;;;;;;;5040659;28;20041;-67
2022/07/12 13:03:00;;;;;;;4.70;4.50;;;;;;;;;;5041060;28;20249;-67
2022/07/12 13:05:27;;;;;;;4.63;4.43;;;;;;;;;;5041852;28;20048;-67
2022/07/12 13:07:53;;;;;;;4.55;4.25;;;;;;;;;;5041253;28;20071;-67
2022/07/12 13:10:19;;;;;;;4.70;4.50;;;;;;;;;;5043097;28;20045;-67
2022/07/12 13:12:44;;;;;;;4.47;4.13;;;;;;;;;;5044991;28;20041;-67
2022/07/12 13:15:10;;;;;;;4.43;4.22;;;;;;;;;;5038928;28;20132;-66
2022/07/12 13:17:36;;;;;;;4.90;4.50;;;;;;;;;;5043575;28;20025;-66
2022/07/12 13:20:03;;;;;;;4.75;4.55;;;;;;;;;;5040431;28;20041;-66
2022/07/12 13:22:29;;;;;;;4.82;4.47;;;;;;;;;;5040898;28;20508;-66
2022/07/12 13:24:55;;;;;;;5.18;4.30;;;;;;;;;;5041202;28;20071;-67
2022/07/12 13:27:21;;;;;;;4.68;4.47;;;;;;;;;;5042062;28;20041;-67
2022/07/12 13:29:46;;;;;;;4.82;4.57;;;;;;;;;;5041132;28;20099;-66
2022/07/12 13:32:12;;;;;;;4.60;4.40;;;;;;;;;;5041536;28;20033;-66
2022/07/12 13:34:38;;;;;;;4.78;4.55;;;;;;;;;;5040011;28;20123;-66
2022/07/12 13:37:05;;;;;;;4.40;4.20;;;;;;;;;;5042845;28;20067;-66
2022/07/12 13:42:14;;;;;;;4.18;3.97;;;;;;;;;;5038263;28;20469;-66
2022/07/12 13:44:42;;;;;;;4.28;4.07;;;;;;;;;;5041049;28;20546;-66
2022/07/12 13:47:08;;;;;;;4.38;4.18;;;;;;;;;;5037339;28;20071;-66
2022/07/12 13:49:33;;;;;;;4.80;4.60;;;;;;;;;;5042988;28;20497;-66
2022/07/12 13:52:01;;;;;;;5.32;4.88;;;;;;;;;;5039989;28;20062;-66
2022/07/12 13:54:27;;;;;;;5.05;4.75;;;;;;;;;;5045532;28;20044;-66
2022/07/12 13:56:53;;;;;;;6.60;4.38;;;;;;;;;;5047735;28;20077;-66
2022/07/12 13:59:19;;;;;;;4.85;4.60;;;;;;;;;;5047526;28;20033;-65
2022/07/12 14:01:45;;;;;;;4.72;4.20;;;;;;;;;;5045490;28;20045;-66
2022/07/12 14:04:10;;;;;;;4.45;4.22;;;;;;;;;;5043903;28;20040;-66
2022/07/12 14:06:36;;;;;;;4.60;4.25;;;;;;;;;;5041979;28;20064;-66
2022/07/12 14:09:01;;;;;;;4.22;4.03;;;;;;;;;;5043582;28;20041;-66
2022/07/12 14:11:27;;;;;;;4.70;4.40;;;;;;;;;;5044616;28;20318;-67
2022/07/12 14:13:52;;;;;;;4.60;4.30;;;;;;;;;;5043417;28;20037;-65
2022/07/12 14:16:18;;;;;;;4.30;4.10;;;;;;;;;;5041932;28;20167;-68
2022/07/12 14:18:44;;;;;;;4.60;4.40;;;;;;;;;;5045107;28;20036;-67
2022/07/12 14:21:10;;;;;;;4.18;3.92;;;;;;;;;;5038928;28;20037;-66
2022/07/12 14:23:36;;;;;;;4.10;3.90;;;;;;;;;;5033535;28;20029;-67
2022/07/12 14:26:02;;;;;;;4.10;3.90;;;;;;;;;;5044460;28;20037;-66
2022/07/12 14:28:28;;;;;;;4.00;3.80;;;;;;;;;;5043505;28;20048;-67
2022/07/12 14:30:53;;;;;;;4.03;3.80;;;;;;;;;;5045212;28;20037;-66
2022/07/12 14:33:19;;;;;;;4.07;3.70;;;;;;;;;;5042483;28;20032;-66
2022/07/12 14:35:46;;;;;;;3.92;3.67;;;;;;;;;;5048457;28;20037;-66
2022/07/12 14:38:11;;;;;;;4.28;3.97;;;;;;;;;;5043510;28;20052;-66
2022/07/12 14:40:38;;;;;;;4.38;3.97;;;;;;;;;;5047570;28;20025;-66
2022/07/12 14:43:04;;;;;;;4.10;3.90;;;;;;;;;;5045898;28;20048;-66
2022/07/12 14:45:30;;;;;;;4.00;3.80;;;;;;;;;;5043927;28;20033;-67
2022/07/12 14:47:55;;;;;;;4.13;3.92;;;;;;;;;;5042898;28;20535;-66
2022/07/12 14:50:21;;;;;;;4.10;3.90;;;;;;;;;;5046451;28;20041;-66
2022/07/12 14:52:47;;;;;;;4.30;4.10;;;;;;;;;;5044668;28;20047;-66
2022/07/12 14:55:12;;;;;;;3.90;3.70;;;;;;;;;;5045288;28;20480;-66
2022/07/12 14:57:39;;;;;;;4.38;4.03;;;;;;;;;;5048395;28;20037;-66